Snow Hill, Texas
Current Conditions -  °F | °C
As of 9:53 AM on Monday 24 Nov 2014 (Local Time) from KLFK Reporting Station
Clear Clear  
Wind Chill: 58°   Ceiling: Unl
Heat Index: 58°   Visibility: 10mi
Dew Point: 35°   Wind: 10mph
Humidity: 42%   Direction: 320°NW
Pressure: 30.06"   Gusts: 22mph
Location:  31.024°N, 94.7686°W
Report Text: KLFK 241553Z AUTO 32009G19KT 10SM CLR 14/02 A3006 RMK AO2 SLP175 T01440017
Loading
Personal Weather Stations






























Interactive Weather Map New forecast layout! Learn more

10-Day Weather Forecast

Advertisements
Track Severe Weather on mobile